Time;durP1;ratioP1;P1;durP2;ratioP2;P2;SDS_P1;SDS_P2;PMS_P1;PMS_P2;Temp;Humidity;BMP_temperature;BMP_pressure;BME280_temperature;BME280_humidity;BME280_pressure;Samples;Min_cycle;Max_cycle;Signal;HPM_P1;HPM_P2
2021/12/29 00:01:12;;;;;;;;;37.00;34.00;;;;;0.12;100.00;98690.38;6310679;20;2864827;-43
2021/12/29 00:03:41;;;;;;;;;48.00;43.50;;;;;-0.03;100.00;98701.47;6277478;20;2868052;-43
2021/12/29 00:06:12;;;;;;;;;52.00;39.33;;;;;0.21;100.00;98705.03;6278474;20;3627412;-42
2021/12/29 00:08:42;;;;;;;;;56.00;41.33;;;;;0.11;100.00;98707.16;6313362;20;3630574;-42
2021/12/29 00:11:11;;;;;;;;;46.00;38.00;;;;;-0.01;100.00;98712.84;6311452;20;2865903;-44
2021/12/29 00:13:38;;;;;;;;;43.00;39.50;;;;;0.34;100.00;98713.38;6277775;20;2504464;-42
2021/12/29 00:16:07;;;;;;;;;48.50;38.00;;;;;0.35;100.00;98712.47;6279782;20;2871141;-45
2021/12/29 00:18:37;;;;;;;;;55.33;38.33;;;;;0.19;100.00;98712.16;6281417;20;3643111;-43
2021/12/29 00:21:08;;;;;;;;;54.50;42.50;;;;;0.29;100.00;98704.75;6311367;20;2866949;-43
2021/12/29 00:23:37;;;;;;;;;59.33;44.00;;;;;0.10;100.00;98697.47;6280975;20;2862949;-44
2021/12/29 00:26:27;;;;;;;;;65.00;50.50;;;;;0.40;100.00;98684.13;6311293;20;2864865;-43
2021/12/29 00:28:59;;;;;;;;;47.00;37.00;;;;;0.09;100.00;98676.44;6279694;20;2876333;-42
2021/12/29 00:31:31;;;;;;;;;52.50;41.00;;;;;0.08;100.00;98670.31;6308509;20;2875699;-45
2021/12/29 00:34:01;;;;;;;;;47.33;40.33;;;;;0.02;100.00;98657.31;6279077;20;2866004;-43
2021/12/29 00:36:31;;;;;;;;;54.00;42.67;;;;;-0.06;100.00;98657.59;6307851;20;2876514;-43
2021/12/29 00:39:00;;;;;;;;;50.67;34.67;;;;;-0.01;100.00;98652.16;6309664;20;2870036;-45
2021/12/29 00:41:29;;;;;;;;;55.00;45.00;;;;;0.00;100.00;98643.34;6308255;20;2849211;-42
2021/12/29 00:43:59;;;;;;;;;56.00;42.00;;;;;0.29;100.00;98658.13;6278641;20;3633658;-45
2021/12/29 00:46:37;;;;;;;;;60.00;45.50;;;;;0.28;100.00;98668.72;6311587;20;2866305;-43
2021/12/29 00:49:08;;;;;;;;;61.00;46.00;;;;;0.10;100.00;98663.19;6277385;20;2860690;-43
2021/12/29 00:51:36;;;;;;;;;62.00;46.00;;;;;0.01;100.00;98660.03;6271637;20;2494035;-43
2021/12/29 00:54:06;;;;;;;;;64.00;45.67;;;;;-0.03;100.00;98653.97;6280971;20;2872208;-42
2021/12/29 00:56:37;;;;;;;;;66.00;46.50;;;;;-0.05;100.00;98634.72;6310925;20;2868000;-41
2021/12/29 00:59:06;;;;;;;;;63.50;46.50;;;;;-0.12;100.00;98638.47;6278603;20;2867073;-43
2021/12/29 01:01:33;;;;;;;;;69.50;56.00;;;;;0.07;100.00;98638.69;6275148;20;2500343;-43
2021/12/29 01:04:03;;;;;;;;;65.50;51.50;;;;;0.08;100.00;98636.00;6275643;20;2488322;-42
2021/12/29 01:06:31;;;;;;;;;59.50;48.50;;;;;0.12;100.00;98629.69;6275729;20;2500274;-43
2021/12/29 01:09:00;;;;;;;;;63.50;47.50;;;;;-0.08;100.00;98634.81;6273607;20;2492012;-42
2021/12/29 01:11:29;;;;;;;;;70.50;52.50;;;;;0.04;100.00;98642.28;6276622;20;2865899;-43
2021/12/29 01:13:58;;;;;;;;;68.00;49.00;;;;;0.02;100.00;98638.00;6278042;20;2883610;-43
2021/12/29 01:19:10;;;;;;;;;67.67;45.67;;;;;-0.03;100.00;98628.47;6283444;20;3620023;-43
2021/12/29 01:21:44;;;;;;;;;55.00;43.00;;;;;0.02;100.00;98620.38;6313616;20;2867022;-44
2021/12/29 01:24:15;;;;;;;;;67.33;46.33;;;;;0.12;100.00;98615.63;6284449;20;3635653;-43
2021/12/29 01:26:45;;;;;;;;;341.67;279.33;;;;;0.07;100.00;98623.72;6310756;20;3711789;-43
2021/12/29 01:29:15;;;;;;;;;90.33;64.33;;;;;-0.11;100.00;98614.66;6281610;20;2888863;-42
2021/12/29 01:31:46;;;;;;;;;104.33;83.33;;;;;0.16;100.00;98620.75;6313673;20;3673171;-43
2021/12/29 01:34:17;;;;;;;;;103.00;77.00;;;;;0.22;100.00;98612.59;6281613;20;3673263;-43
2021/12/29 01:36:47;;;;;;;;;74.00;57.33;;;;;0.11;100.00;98620.06;6314778;20;2884146;-43
2021/12/29 01:39:20;;;;;;;;;67.00;51.00;;;;;-0.03;100.00;98614.41;6311808;20;2878511;-44
2021/12/29 01:41:56;;;;;;;;;78.00;57.00;;;;;-0.25;100.00;98612.53;6284657;20;3643065;-45
2021/12/29 01:44:28;;;;;;;;;71.67;49.67;;;;;-0.25;100.00;98617.81;6315215;20;2888782;-44
2021/12/29 01:46:58;;;;;;;;;64.00;45.50;;;;;0.03;100.00;98615.94;6315500;20;2861746;-43
2021/12/29 01:49:28;;;;;;;;;72.67;52.33;;;;;0.30;100.00;98619.38;6284628;20;2890057;-44
2021/12/29 01:52:10;;;;;;;;;68.50;48.00;;;;;0.18;100.00;98613.63;6314347;20;2873319;-42
2021/12/29 01:54:40;;;;;;;;;74.67;51.67;;;;;0.02;100.00;98620.38;6283298;20;3633249;-42
2021/12/29 01:57:10;;;;;;;;;77.00;55.00;;;;;0.02;100.00;98609.81;6313746;20;3637801;-43
2021/12/29 01:59:41;;;;;;;;;86.33;63.00;;;;;-0.15;100.00;98607.81;6314982;20;3653455;-43
2021/12/29 02:02:14;;;;;;;;;68.50;48.00;;;;;0.06;100.00;98610.59;6315120;20;2853406;-42
2021/12/29 02:04:45;;;;;;;;;72.00;54.50;;;;;0.17;100.00;98608.41;6280173;20;2870039;-42
2021/12/29 02:07:15;;;;;;;;;76.00;54.67;;;;;0.01;100.00;98618.66;6283867;20;3627402;-43
2021/12/29 02:09:44;;;;;;;;;75.00;52.33;;;;;-0.04;100.00;98617.97;6313455;20;2879517;-45
2021/12/29 02:12:16;;;;;;;;;80.00;58.33;;;;;-0.07;100.00;98620.72;6315539;20;3650209;-42
2021/12/29 02:14:46;;;;;;;;;79.00;56.67;;;;;0.02;100.00;98623.00;6309962;20;3640906;-43
2021/12/29 02:17:16;;;;;;;;;71.67;56.33;;;;;0.02;100.00;98630.06;6312252;20;2867556;-42
2021/12/29 02:19:47;;;;;;;;;72.33;49.67;;;;;0.34;100.00;98624.50;6313155;20;2890281;-43
2021/12/29 02:27:55;;;;;;;;;86.33;62.00;;;;;-0.13;100.00;98639.38;6313791;20;3655564;-43
2021/12/29 02:30:27;;;;;;;;;83.33;61.67;;;;;0.22;100.00;98644.28;6312635;20;3657571;-42
2021/12/29 02:32:57;;;;;;;;;80.33;56.67;;;;;0.22;100.00;98644.28;6313713;20;3645556;-45
2021/12/29 02:35:27;;;;;;;;;80.67;56.00;;;;;0.29;100.00;98649.31;6314406;20;3650231;-44
2021/12/29 02:37:59;;;;;;;;;86.33;57.00;;;;;0.06;100.00;98639.63;6314690;20;3665876;-44
2021/12/29 02:40:31;;;;;;;;;77.00;57.67;;;;;0.22;100.00;98653.97;6312497;20;3639240;-42
2021/12/29 02:43:00;;;;;;;;;80.00;51.67;;;;;0.32;100.00;98649.22;6314930;20;3652337;-44
2021/12/29 02:45:34;;;;;;;;;78.33;52.00;;;;;0.19;100.00;98648.81;6310658;20;3640969;-43
2021/12/29 02:48:02;;;;;;;;;70.50;44.50;;;;;0.21;100.00;98647.84;6314829;20;2844053;-43
2021/12/29 02:50:32;;;;;;;;;84.00;58.33;;;;;-0.11;100.00;98640.19;6281450;20;3641921;-42
2021/12/29 02:53:02;;;;;;;;;86.33;59.33;;;;;-0.02;100.00;98638.09;6314173;20;3659634;-43
2021/12/29 02:55:32;;;;;;;;;79.67;56.33;;;;;0.10;100.00;98644.69;6280446;20;3642042;-42
2021/12/29 02:58:01;;;;;;;;;73.33;51.00;;;;;0.27;100.00;98641.47;6313006;20;3635720;-43
2021/12/29 03:00:32;;;;;;;;;74.00;52.33;;;;;0.21;100.00;98645.19;6310923;20;3632663;-43
2021/12/29 03:03:02;;;;;;;;;79.33;52.33;;;;;-0.04;100.00;98637.28;6313022;20;3645001;-43
2021/12/29 03:05:31;;;;;;;;;76.67;52.67;;;;;-0.04;100.00;98637.28;6312065;20;3630545;-44
2021/12/29 03:08:01;;;;;;;;;73.00;50.33;;;;;0.29;100.00;98638.75;6313027;20;2883698;-42
2021/12/29 03:10:31;;;;;;;;;77.33;55.67;;;;;0.00;100.00;98648.63;6312483;20;3640972;-42
2021/12/29 03:13:01;;;;;;;;;84.00;52.67;;;;;0.19;100.00;98639.09;6310544;20;3635042;-42
2021/12/29 03:15:30;;;;;;;;;77.67;56.00;;;;;0.21;100.00;98639.91;6312119;20;3657536;-42
2021/12/29 03:18:00;;;;;;;;;68.67;49.00;;;;;0.42;100.00;98640.91;6313089;20;2882635;-43
2021/12/29 03:20:31;;;;;;;;;77.33;55.00;;;;;0.24;100.00;98651.25;6309656;20;3634778;-44
2021/12/29 03:23:01;;;;;;;;;73.00;50.00;;;;;0.41;100.00;98638.31;6313970;20;3635664;-43
2021/12/29 03:25:29;;;;;;;;;76.50;54.00;;;;;0.27;100.00;98645.91;6305842;20;2487805;-43
2021/12/29 03:28:00;;;;;;;;;67.33;52.33;;;;;0.23;100.00;98631.94;6281280;20;2877478;-44
2021/12/29 03:30:36;;;;;;;;;72.00;50.33;;;;;0.54;100.00;98636.94;6310194;20;2887840;-43
2021/12/29 03:33:09;;;;;;;;;68.33;54.33;;;;;0.49;100.00;98638.88;6312079;20;2875405;-43
2021/12/29 03:35:54;;;;;;;;;72.00;49.00;;;;;0.37;100.00;98631.41;6313100;20;2873287;-43
2021/12/29 03:38:27;;;;;;;;;79.00;54.00;;;;;0.03;100.00;98631.78;6311491;20;3653488;-44
2021/12/29 03:40:59;;;;;;;;;82.00;56.67;;;;;0.03;100.00;98626.50;6309725;20;3639970;-45
2021/12/29 03:43:32;;;;;;;;;73.67;51.00;;;;;0.15;100.00;98637.47;6310939;20;2886851;-42
2021/12/29 03:46:05;;;;;;;;;75.67;52.33;;;;;0.37;100.00;98636.69;6310727;20;3648154;-43
2021/12/29 03:48:39;;;;;;;;;86.67;61.00;;;;;0.07;100.00;98628.97;6312284;20;3654404;-42
2021/12/29 03:51:10;;;;;;;;;80.67;54.67;;;;;0.24;100.00;98627.50;6309666;20;2879515;-43
2021/12/29 03:53:40;;;;;;;;;70.50;50.50;;;;;0.08;100.00;98624.56;6312318;20;2873257;-44
2021/12/29 03:56:09;;;;;;;;;95.00;69.00;;;;;-0.06;100.00;98622.44;6280672;20;2895098;-44
2021/12/29 03:58:41;;;;;;;;;91.00;59.00;;;;;0.10;100.00;98622.75;6280498;20;3669123;-44
2021/12/29 04:01:15;;;;;;;;;81.00;60.33;;;;;0.11;100.00;98624.47;6316178;20;2888888;-43
2021/12/29 04:03:46;;;;;;;;;65.00;49.33;;;;;0.25;100.00;98642.44;6312218;20;2872615;-43
2021/12/29 04:06:18;;;;;;;;;74.67;52.67;;;;;0.26;100.00;98642.38;6311599;20;2880468;-42
2021/12/29 04:08:49;;;;;;;;;71.67;47.33;;;;;0.13;100.00;98638.47;6313403;20;2873158;-44
2021/12/29 04:11:19;;;;;;;;;71.33;56.33;;;;;0.18;100.00;98642.66;6310302;20;2869021;-42
2021/12/29 04:13:50;;;;;;;;;89.67;66.67;;;;;-0.09;100.00;98633.09;6311036;20;3647124;-42
2021/12/29 04:16:19;;;;;;;;;76.00;55.00;;;;;0.17;100.00;98640.94;6309545;20;2875281;-43
2021/12/29 04:19:06;;;;;;;;;78.33;54.33;;;;;0.17;100.00;98640.94;6281581;20;3642972;-43
2021/12/29 04:21:38;;;;;;;;;77.00;52.67;;;;;0.23;100.00;98639.84;6308770;20;2889971;-42
2021/12/29 04:24:09;;;;;;;;;74.67;55.00;;;;;0.17;100.00;98648.84;6312587;20;2893131;-43
2021/12/29 04:26:39;;;;;;;;;75.33;56.00;;;;;0.33;100.00;98643.03;6308962;20;3634736;-43
2021/12/29 04:29:13;;;;;;;;;80.33;55.33;;;;;0.29;100.00;98638.75;6312862;20;2881570;-43
2021/12/29 04:31:44;;;;;;;;;80.00;51.67;;;;;0.17;100.00;98643.56;6309997;20;3653415;-43
2021/12/29 04:34:13;;;;;;;;;84.00;56.67;;;;;0.05;100.00;98640.50;6310969;20;3654538;-43
2021/12/29 04:36:43;;;;;;;;;69.00;52.00;;;;;0.27;100.00;98646.75;6310982;20;2874436;-44
2021/12/29 04:39:12;;;;;;;;;77.00;54.67;;;;;0.21;100.00;98645.19;6311131;20;3641869;-44
2021/12/29 04:41:42;;;;;;;;;80.00;55.33;;;;;0.24;100.00;98652.16;6307192;20;2882704;-43
2021/12/29 04:44:11;;;;;;;;;82.67;60.67;;;;;0.22;100.00;98649.56;6310917;20;3656500;-42
2021/12/29 04:46:45;;;;;;;;;74.33;57.33;;;;;0.29;100.00;98649.31;6309848;20;3625746;-42
2021/12/29 04:49:21;;;;;;;;;79.33;53.33;;;;;0.29;100.00;98655.47;6310066;20;3639825;-43
2021/12/29 04:51:57;;;;;;;;;80.67;59.67;;;;;0.16;100.00;98655.06;6310935;20;3637741;-44
2021/12/29 04:54:26;;;;;;;;;77.33;55.00;;;;;0.20;100.00;98659.28;6317000;20;3627321;-43
2021/12/29 04:56:56;;;;;;;;;75.67;53.00;;;;;0.26;100.00;98654.72;6317037;20;3639788;-44
2021/12/29 04:59:28;;;;;;;;;82.67;55.67;;;;;0.24;100.00;98667.09;6316761;20;3643986;-43
2021/12/29 05:01:57;;;;;;;;;74.00;54.50;;;;;0.25;100.00;98659.13;6314298;20;2880449;-43
2021/12/29 05:04:32;;;;;;;;;73.33;53.67;;;;;0.22;100.00;98660.09;6285049;20;2882770;-46
2021/12/29 05:09:51;;;;;;;;;78.00;56.33;;;;;0.19;100.00;98657.59;6313163;20;3644391;-43
2021/12/29 05:12:22;;;;;;;;;146.00;115.00;;;;;-0.05;100.00;98645.28;6314797;20;3733674;-45
2021/12/29 05:14:51;;;;;;;;;75.67;51.67;;;;;0.30;100.00;98659.84;6283906;20;3637301;-44
2021/12/29 05:17:24;;;;;;;;;74.67;52.00;;;;;0.32;100.00;98665.91;6313366;20;3640843;-45
2021/12/29 05:19:54;;;;;;;;;87.33;56.00;;;;;0.18;100.00;98669.03;6314854;20;3654387;-42
2021/12/29 05:22:23;;;;;;;;;78.00;53.00;;;;;0.22;100.00;98678.59;6316012;20;3642936;-44
2021/12/29 05:24:53;;;;;;;;;76.67;58.00;;;;;0.28;100.00;98676.66;6314368;20;3646057;-45
2021/12/29 05:27:22;;;;;;;;;70.50;49.00;;;;;0.23;100.00;98671.53;6312713;20;2866993;-43
2021/12/29 05:29:51;;;;;;;;;73.33;56.33;;;;;0.31;100.00;98664.19;6283074;20;3620044;-43
2021/12/29 05:32:21;;;;;;;;;81.67;59.00;;;;;0.17;100.00;98666.47;6316187;20;3638786;-43
2021/12/29 05:34:50;;;;;;;;;72.00;51.00;;;;;0.16;100.00;98680.59;6316006;20;3633700;-44
2021/12/29 05:37:20;;;;;;;;;75.67;52.67;;;;;0.29;100.00;98676.59;6315189;20;2880625;-43
2021/12/29 05:39:50;;;;;;;;;72.33;50.33;;;;;0.07;100.00;98671.22;6315444;20;2884797;-45
2021/12/29 05:42:18;;;;;;;;;71.00;51.50;;;;;0.23;100.00;98671.53;6313699;20;2879853;-43
2021/12/29 05:44:48;;;;;;;;;74.67;52.00;;;;;0.24;100.00;98680.28;6283479;20;3640948;-44
2021/12/29 05:47:17;;;;;;;;;69.00;46.00;;;;;0.31;100.00;98676.53;6313233;20;2869092;-43
2021/12/29 05:49:47;;;;;;;;;75.67;53.67;;;;;0.04;100.00;98681.88;6282383;20;3638797;-44
2021/12/29 05:52:18;;;;;;;;;71.33;52.67;;;;;-0.01;100.00;98678.53;6316551;20;2876439;-43
2021/12/29 05:54:47;;;;;;;;;72.33;51.67;;;;;0.00;100.00;98675.00;6314497;20;2883684;-42
2021/12/29 05:57:17;;;;;;;;;64.33;48.33;;;;;0.34;100.00;98673.78;6312854;20;2883754;-43
2021/12/29 05:59:47;;;;;;;;;77.00;48.33;;;;;0.14;100.00;98678.00;6315055;20;2886828;-39
2021/12/29 06:02:16;;;;;;;;;61.00;48.00;;;;;0.29;100.00;98681.00;6314597;20;2865927;-40
2021/12/29 06:04:46;;;;;;;;;73.33;49.33;;;;;0.26;100.00;98681.09;6283366;20;2883761;-39
2021/12/29 06:07:15;;;;;;;;;63.50;48.50;;;;;0.29;100.00;98695.06;6314744;20;2867957;-38
2021/12/29 06:09:44;;;;;;;;;75.00;54.00;;;;;0.33;100.00;98687.91;6282900;20;2886753;-39
2021/12/29 06:12:13;;;;;;;;;61.00;47.00;;;;;0.09;100.00;98692.28;6315180;20;2842983;-39
2021/12/29 06:14:44;;;;;;;;;64.50;46.00;;;;;0.26;100.00;98699.59;6282348;20;2872210;-39
2021/12/29 06:17:14;;;;;;;;;62.00;43.00;;;;;0.30;100.00;98701.22;6280965;20;2870161;-39
2021/12/29 06:19:44;;;;;;;;;63.33;46.00;;;;;0.21;100.00;98708.56;6282191;20;3627321;-39
2021/12/29 06:22:13;;;;;;;;;71.00;55.33;;;;;0.14;100.00;98701.75;6315073;20;2878374;-39
2021/12/29 06:24:44;;;;;;;;;73.67;52.00;;;;;0.26;100.00;98699.59;6315465;20;2885744;-39
2021/12/29 06:27:14;;;;;;;;;67.33;51.00;;;;;0.21;100.00;98692.72;6311914;20;2868999;-39
2021/12/29 06:29:43;;;;;;;;;57.00;42.67;;;;;0.33;100.00;98694.03;6318270;20;2889917;-39
2021/12/29 06:32:12;;;;;;;;;69.00;47.00;;;;;0.37;100.00;98692.13;6312162;20;2859617;-40
2021/12/29 06:34:42;;;;;;;;;66.00;47.00;;;;;0.26;100.00;98687.25;6283657;20;2862867;-39
2021/12/29 06:37:12;;;;;;;;;60.50;46.00;;;;;0.34;100.00;98701.06;6283272;20;2868078;-39
2021/12/29 06:39:45;;;;;;;;;59.67;43.33;;;;;0.21;100.00;98700.63;6281623;20;2871114;-39
2021/12/29 06:42:16;;;;;;;;;59.33;45.33;;;;;0.35;100.00;98707.19;6315512;20;2862876;-39
2021/12/29 06:44:47;;;;;;;;;66.50;48.50;;;;;0.17;100.00;98704.28;6314614;20;2856520;-38
2021/12/29 06:47:17;;;;;;;;;71.00;48.00;;;;;0.36;100.00;98711.53;6282357;20;2871072;-39
2021/12/29 06:49:45;;;;;;;;;61.00;48.50;;;;;0.31;100.00;98716.13;6281223;20;2862740;-38
2021/12/29 06:52:14;;;;;;;;;65.00;47.00;;;;;0.12;100.00;98719.41;6282711;20;2852451;-39
2021/12/29 06:54:46;;;;;;;;;85.67;60.00;;;;;0.09;100.00;98719.53;6282181;20;2908672;-39
2021/12/29 06:57:15;;;;;;;;;89.33;65.33;;;;;0.16;100.00;98718.41;6313454;20;3658683;-39
2021/12/29 06:59:43;;;;;;;;;59.00;50.00;;;;;-0.03;100.00;98717.28;6277162;20;2503409;-40
2021/12/29 07:02:14;;;;;;;;;51.50;42.00;;;;;0.21;100.00;98724.38;6279282;20;2500301;-39
2021/12/29 07:04:44;;;;;;;;;64.00;46.50;;;;;0.17;100.00;98728.03;6281209;20;2877342;-39
2021/12/29 07:07:13;;;;;;;;;80.00;60.00;;;;;-0.06;100.00;98720.91;6279910;20;2880599;-39
2021/12/29 07:09:42;;;;;;;;;55.00;44.00;;;;;0.25;100.00;98729.56;6309383;20;2863795;-39
2021/12/29 07:12:12;;;;;;;;;85.33;61.00;;;;;0.14;100.00;98730.78;6282738;20;3650262;-39
2021/12/29 07:14:42;;;;;;;;;78.67;56.67;;;;;0.16;100.00;98733.38;6311359;20;2889967;-39
2021/12/29 07:17:11;;;;;;;;;75.00;55.50;;;;;0.26;100.00;98733.91;6310561;20;2881521;-39
2021/12/29 07:19:40;;;;;;;;;72.33;54.33;;;;;0.29;100.00;98736.44;6280006;20;2873193;-40
2021/12/29 07:22:10;;;;;;;;;77.67;56.67;;;;;0.28;100.00;98734.72;6313351;20;2882608;-39
2021/12/29 07:24:40;;;;;;;;;80.33;58.67;;;;;0.26;100.00;98731.25;6312735;20;3641997;-39
2021/12/29 07:27:10;;;;;;;;;71.00;50.33;;;;;0.37;100.00;98737.00;6312028;20;3633583;-39
2021/12/29 07:29:39;;;;;;;;;90.67;66.33;;;;;0.51;100.00;98749.75;6312018;20;3632679;-39
2021/12/29 07:32:09;;;;;;;;;56.67;45.67;;;;;0.42;100.00;98762.38;6313856;20;2877537;-39
2021/12/29 07:34:38;;;;;;;;;74.50;58.00;;;;;0.50;100.00;98754.19;6312599;20;2860749;-40
2021/12/29 07:37:08;;;;;;;;;77.67;58.33;;;;;0.35;100.00;98770.56;6281327;20;2883628;-39
2021/12/29 07:39:37;;;;;;;;;67.00;53.00;;;;;0.48;100.00;98766.56;6313117;20;2864847;-39
2021/12/29 07:42:07;;;;;;;;;80.00;58.33;;;;;0.46;100.00;98767.53;6281059;20;3637787;-39
2021/12/29 07:44:39;;;;;;;;;79.67;58.00;;;;;0.42;100.00;98777.31;6312843;20;3654778;-39
2021/12/29 07:47:10;;;;;;;;;73.00;55.67;;;;;0.43;100.00;98779.91;6313051;20;2873174;-39
2021/12/29 07:49:40;;;;;;;;;80.33;58.00;;;;;0.51;100.00;98779.66;6312125;20;3648126;-39
2021/12/29 07:52:10;;;;;;;;;88.00;64.33;;;;;0.62;100.00;98780.13;6311842;20;3646215;-39
2021/12/29 07:54:38;;;;;;;;;76.00;60.50;;;;;0.49;100.00;98778.84;6312776;20;2874242;-39
2021/12/29 07:57:07;;;;;;;;;76.00;56.50;;;;;0.60;100.00;98792.50;6280153;20;2875228;-41
2021/12/29 07:59:37;;;;;;;;;94.33;68.33;;;;;0.61;100.00;98794.25;6281501;20;3631454;-39
2021/12/29 08:02:16;;;;;;;;;80.67;60.33;;;;;0.41;100.00;98789.66;6313447;20;3653346;-41
2021/12/29 08:04:47;;;;;;;;;72.00;53.00;;;;;0.57;100.00;98803.19;6311781;20;2874203;-38
2021/12/29 08:07:37;;;;;;;;;68.33;51.33;;;;;0.75;100.00;98806.09;6281248;20;2882715;-40
2021/12/29 08:10:07;;;;;;;;;67.00;46.50;;;;;0.66;100.00;98809.94;6311503;20;2869149;-39
2021/12/29 08:12:36;;;;;;;;;63.00;52.00;;;;;0.54;100.00;98813.88;6281970;20;2855486;-39
2021/12/29 08:15:06;;;;;;;;;85.33;64.00;;;;;0.59;100.00;98819.00;6280116;20;3640285;-39
2021/12/29 08:17:36;;;;;;;;;87.00;62.33;;;;;0.67;100.00;98813.44;6312298;20;3669027;-39
2021/12/29 08:20:08;;;;;;;;;79.33;60.67;;;;;0.40;100.00;98811.72;6280362;20;2886760;-40
2021/12/29 08:22:38;;;;;;;;;107.67;73.33;;;;;0.53;100.00;98806.88;6311199;20;3683554;-40
2021/12/29 08:25:09;;;;;;;;;92.67;69.33;;;;;0.56;100.00;98817.31;6280484;20;3654439;-39
2021/12/29 08:27:39;;;;;;;;;87.67;67.00;;;;;0.54;100.00;98811.22;6280099;20;3647121;-38
2021/12/29 08:30:09;;;;;;;;;96.67;72.67;;;;;0.74;100.00;98814.94;6316868;20;3650341;-39
2021/12/29 08:32:39;;;;;;;;;92.00;69.33;;;;;0.48;100.00;98816.75;6316433;20;3650245;-39
2021/12/29 08:35:09;;;;;;;;;82.00;64.00;;;;;0.57;100.00;98821.69;6284026;20;2878431;-39
2021/12/29 08:37:39;;;;;;;;;91.67;66.33;;;;;0.59;100.00;98817.22;6286400;20;3654408;-39
2021/12/29 08:40:11;;;;;;;;;97.33;74.00;;;;;0.77;100.00;98826.28;6318145;20;3667035;-39
2021/12/29 08:42:42;;;;;;;;;75.33;54.67;;;;;0.62;100.00;98824.16;6283974;20;2877442;-39
2021/12/29 08:45:16;;;;;;;;;77.67;59.33;;;;;0.63;100.00;98825.88;6316041;20;2887872;-39
2021/12/29 08:47:46;;;;;;;;;79.33;58.00;;;;;0.79;100.00;98829.72;6317157;20;3650222;-39
2021/12/29 08:50:20;;;;;;;;;83.33;60.33;;;;;0.74;100.00;98830.78;6312965;20;2888907;-39
2021/12/29 08:52:50;;;;;;;;;99.00;74.00;;;;;0.87;100.00;98824.19;6315485;20;3676255;-40
2021/12/29 08:55:19;;;;;;;;;97.00;73.00;;;;;0.59;100.00;98822.50;6283836;20;3668998;-39
2021/12/29 08:57:49;;;;;;;;;85.33;60.33;;;;;0.87;100.00;98816.25;6282612;20;2893103;-39
2021/12/29 09:00:21;;;;;;;;;99.67;70.33;;;;;0.98;100.00;98818.50;6315024;20;3674160;-39
2021/12/29 09:02:50;;;;;;;;;94.33;70.67;;;;;0.60;100.00;98807.50;6283417;20;3649186;-39
2021/12/29 09:05:21;;;;;;;;;72.00;52.67;;;;;0.61;100.00;98804.81;6315552;20;3647126;-40
2021/12/29 09:07:51;;;;;;;;;67.67;50.00;;;;;0.93;100.00;98813.38;6315747;20;2884657;-39
2021/12/29 09:10:21;;;;;;;;;68.00;46.00;;;;;0.90;100.00;98816.13;6313049;20;3636798;-39
2021/12/29 09:12:56;;;;;;;;;74.67;56.00;;;;;0.80;100.00;98822.66;6316478;20;2888908;-39
2021/12/29 09:15:26;;;;;;;;;89.67;65.00;;;;;0.78;100.00;98808.63;6313577;20;3650221;-39
2021/12/29 09:17:56;;;;;;;;;86.33;63.67;;;;;0.95;100.00;98814.19;6281420;20;3632527;-40
2021/12/29 09:20:31;;;;;;;;;85.67;60.00;;;;;0.87;100.00;98810.97;6315067;20;3662769;-39
2021/12/29 09:23:08;;;;;;;;;79.00;60.33;;;;;0.86;100.00;98812.72;6282487;20;2887871;-39
2021/12/29 09:25:41;;;;;;;;;83.33;60.33;;;;;0.95;100.00;98803.63;6315484;20;3644133;-39
2021/12/29 09:28:15;;;;;;;;;81.67;58.67;;;;;1.07;100.00;98808.44;6316422;20;3627307;-39
2021/12/29 09:30:47;;;;;;;;;71.67;56.33;;;;;1.13;100.00;98809.13;6315112;20;2876345;-39
2021/12/29 09:33:21;;;;;;;;;70.33;48.67;;;;;1.04;100.00;98807.69;6315640;20;3637729;-39
2021/12/29 09:36:01;;;;;;;;;71.00;52.67;;;;;1.23;100.00;98815.78;6316084;20;2882602;-39
2021/12/29 09:38:35;;;;;;;;;75.67;53.67;;;;;1.09;100.00;98813.66;6312900;20;3653333;-39
2021/12/29 09:41:16;;;;;;;;;78.00;55.00;;;;;1.07;100.00;98815.50;6313898;20;3652335;-39
2021/12/29 09:43:48;;;;;;;;;83.00;60.33;;;;;1.32;100.00;98820.75;6314050;20;2891028;-39
2021/12/29 09:46:18;;;;;;;;;82.67;56.67;;;;;1.23;100.00;98831.66;6313761;20;3661691;-39
2021/12/29 09:48:49;;;;;;;;;84.67;60.00;;;;;1.15;100.00;98836.38;6312821;20;3657507;-39
2021/12/29 09:51:20;;;;;;;;;81.67;63.33;;;;;1.18;100.00;98830.97;6312896;20;3628431;-39
2021/12/29 09:53:50;;;;;;;;;66.33;43.67;;;;;1.23;100.00;98835.16;6315161;20;2878552;-41
2021/12/29 09:56:19;;;;;;;;;66.33;49.67;;;;;1.29;100.00;98836.69;6308781;20;2868986;-40
2021/12/29 09:58:49;;;;;;;;;65.00;49.50;;;;;1.35;100.00;98828.56;6313413;20;2870131;-41
2021/12/29 10:01:20;;;;;;;;;74.33;53.33;;;;;1.51;100.00;98834.97;6242526;20;2881663;-40
2021/12/29 10:03:50;;;;;;;;;64.00;47.33;;;;;1.52;100.00;98822.59;6315794;20;2882616;-40
2021/12/29 10:06:20;;;;;;;;;68.67;52.33;;;;;1.52;100.00;98826.09;6317816;20;2863798;-40
2021/12/29 10:08:50;;;;;;;;;71.00;55.33;;;;;1.55;100.00;98822.47;6316797;20;2879455;-41
2021/12/29 10:11:29;;;;;;;;;69.50;52.00;;;;;1.74;100.00;98815.56;6314926;20;2866904;-40
2021/12/29 10:13:59;;;;;;;;;79.67;55.67;;;;;1.35;100.00;98811.84;6287550;20;3650198;-40
2021/12/29 10:16:29;;;;;;;;;75.33;56.33;;;;;1.94;100.00;98805.94;6316634;20;3621067;-43
2021/12/29 10:19:10;;;;;;;;;71.00;54.33;;;;;1.95;100.00;98816.50;6318294;20;2876387;-40
2021/12/29 10:21:47;;;;;;;;;65.00;47.33;;;;;2.05;100.00;98813.44;6314912;20;3633547;-40
2021/12/29 10:24:19;;;;;;;;;75.00;56.00;;;;;2.24;100.00;98814.44;6318676;20;2883732;-41
2021/12/29 10:26:50;;;;;;;;;63.00;51.00;;;;;2.04;100.00;98806.44;6317912;20;2851277;-40
2021/12/29 10:29:21;;;;;;;;;68.00;52.50;;;;;1.98;100.00;98808.41;6281237;20;2870039;-41
2021/12/29 10:32:02;;;;;;;;;83.00;55.33;;;;;2.32;100.00;98799.06;6285743;20;3644008;-40
2021/12/29 10:34:32;;;;;;;;;56.00;48.00;;;;;2.10;100.00;98790.28;6318360;20;2858567;-41
2021/12/29 10:37:09;;;;;;;;;81.67;58.33;;;;;2.00;100.00;98802.19;6286648;20;3656512;-40
2021/12/29 10:39:45;;;;;;;;;57.67;44.00;;;;;2.32;100.00;98801.72;6316678;20;2870054;-40
2021/12/29 10:42:18;;;;;;;;;68.67;53.00;;;;;2.25;100.00;98794.09;6319039;20;2876752;-40
2021/12/29 10:45:00;;;;;;;;;74.33;55.67;;;;;2.21;100.00;98793.34;6318909;20;3643061;-40
2021/12/29 10:47:42;;;;;;;;;74.00;57.00;;;;;2.57;100.00;98798.00;6280373;20;3635652;-40
2021/12/29 10:50:15;;;;;;;;;134.50;110.25;;;;;2.42;100.00;98802.16;6310006;20;4498170;-41
2021/12/29 10:52:56;;;;;;;;;102.00;78.00;;;;;2.29;100.00;98796.56;6283724;20;3682527;-41
2021/12/29 10:55:35;;;;;;;;;67.00;51.00;;;;;2.18;100.00;98788.19;6306904;20;2872249;-40
2021/12/29 10:58:18;;;;;;;;;66.67;49.00;;;;;2.18;100.00;98793.47;6307393;20;2872185;-41
2021/12/29 11:01:12;;;;;;;;;64.50;50.00;;;;;2.36;100.00;98789.19;6313292;20;2867941;-40
2021/12/29 11:04:04;;;;;;;;;65.00;46.50;;;;;2.21;100.00;98793.34;6285880;20;2867057;-41
2021/12/29 11:06:43;;;;;;;;;63.00;45.67;;;;;2.07;100.00;98787.78;6276824;20;2871970;-41
2021/12/29 11:09:15;;;;;;;;;58.00;45.50;;;;;2.13;100.00;98782.22;6310654;20;2838802;-41
2021/12/29 11:11:46;;;;;;;;;57.00;42.67;;;;;2.13;100.00;98784.88;6278271;20;2872350;-41
2021/12/29 11:14:29;;;;;;;;;45.00;40.00;;;;;2.18;100.00;98783.75;6314946;20;2852563;-41
2021/12/29 11:17:05;;;;;;;;;49.33;41.00;;;;;2.17;100.00;98791.78;6281684;20;2855545;-41
2021/12/29 11:19:39;;;;;;;;;52.00;44.00;;;;;2.13;100.00;98792.81;6315042;20;2852383;-41
2021/12/29 11:22:15;;;;;;;;;65.00;46.00;;;;;2.35;100.00;98791.00;6282207;20;3630503;-41
2021/12/29 11:24:55;;;;;;;;;66.67;48.33;;;;;2.18;100.00;98783.75;6314516;20;2870072;-40
2021/12/29 11:27:31;;;;;;;;;59.50;45.00;;;;;2.19;100.00;98784.63;6317089;20;2864012;-40
2021/12/29 11:30:12;;;;;;;;;59.00;47.50;;;;;2.02;100.00;98792.41;6283633;20;2858556;-40